createdAt,value
2022-10-15T00:00:48.991Z,4.85
2022-10-15T00:03:53.761Z,5.15
2022-10-15T00:06:58.663Z,6.72
2022-10-15T00:10:03.767Z,4.82
2022-10-15T00:13:08.130Z,7.88
2022-10-15T00:16:17.540Z,5.72
2022-10-15T00:19:22.054Z,6.40
2022-10-15T00:22:26.599Z,5.85
2022-10-15T00:25:31.851Z,6.30
2022-10-15T00:28:36.916Z,7.35
2022-10-15T00:31:41.225Z,8.55
2022-10-15T00:34:47.265Z,6.80
2022-10-15T00:37:51.928Z,6.30
2022-10-15T00:40:57.851Z,7.90
2022-10-15T00:44:21.409Z,6.63
2022-10-15T00:47:40.505Z,6.18
2022-10-15T00:50:46.598Z,7.30
2022-10-15T00:53:52.173Z,7.10
2022-10-15T00:56:56.516Z,5.53
2022-10-15T01:00:08.202Z,10.90
2022-10-15T01:03:12.819Z,6.97
2022-10-15T01:06:17.391Z,6.25
2022-10-15T01:09:24.141Z,5.57
2022-10-15T01:13:14.571Z,6.68
2022-10-15T01:16:32.539Z,4.90
2022-10-15T01:20:35.081Z,3.78
2022-10-15T01:24:16.663Z,4.22
2022-10-15T01:27:37.602Z,4.03
2022-10-15T01:30:47.344Z,3.80
2022-10-15T01:34:33.526Z,4.28
2022-10-15T01:37:54.090Z,4.78
2022-10-15T01:41:27.176Z,5.05
2022-10-15T01:44:39.524Z,3.83
2022-10-15T01:48:12.358Z,4.75
2022-10-15T01:51:18.143Z,4.03
2022-10-15T01:54:26.930Z,3.95
2022-10-15T01:57:32.434Z,3.92
2022-10-15T02:00:39.646Z,4.30
2022-10-15T02:03:51.708Z,4.25
2022-10-15T02:07:07.066Z,5.40
2022-10-15T02:14:07.715Z,3.97
2022-10-15T02:17:15.106Z,4.27
2022-10-15T02:20:33.507Z,4.93
2022-10-15T02:24:16.010Z,4.03
2022-10-15T02:27:21.842Z,4.30
2022-10-15T02:30:27.606Z,4.25
2022-10-15T02:33:33.818Z,4.90
2022-10-15T02:36:40.839Z,3.55
2022-10-15T02:39:45.449Z,4.20
2022-10-15T02:42:52.127Z,4.75
2022-10-15T02:45:56.861Z,4.05
2022-10-15T02:49:01.220Z,5.15
2022-10-15T02:52:07.191Z,4.65
2022-10-15T02:55:11.976Z,4.00
2022-10-15T02:58:16.395Z,4.30
2022-10-15T03:01:22.242Z,4.05
2022-10-15T03:04:27.203Z,4.00
2022-10-15T03:07:32.233Z,4.13
2022-10-15T03:10:37.410Z,4.03
2022-10-15T03:13:42.603Z,6.13
2022-10-15T03:16:46.825Z,7.55
2022-10-15T03:19:51.219Z,5.30
2022-10-15T03:22:55.739Z,5.68
2022-10-15T03:26:00.170Z,4.97
2022-10-15T03:29:05.143Z,5.65
2022-10-15T03:32:14.108Z,5.63
2022-10-15T03:35:19.024Z,5.70
2022-10-15T03:38:23.459Z,5.50
2022-10-15T03:41:29.828Z,4.97
2022-10-15T03:44:34.891Z,5.03
2022-10-15T03:47:45.469Z,6.05
2022-10-15T03:50:50.216Z,4.80
2022-10-15T03:53:54.662Z,5.97
2022-10-15T03:57:00.531Z,5.47
2022-10-15T04:00:13.759Z,5.57
2022-10-15T04:03:18.049Z,5.65
2022-10-15T04:06:22.583Z,5.57
2022-10-15T04:09:27.633Z,6.30
2022-10-15T04:12:50.649Z,6.47
2022-10-15T04:15:56.198Z,4.45
2022-10-15T04:19:00.381Z,5.00
2022-10-15T04:22:05.604Z,6.82
2022-10-15T04:25:17.984Z,5.32
2022-10-15T04:28:22.533Z,6.78
2022-10-15T04:31:27.964Z,7.90
2022-10-15T04:34:32.684Z,7.55
2022-10-15T04:37:38.113Z,5.78
2022-10-15T04:40:42.481Z,6.20
2022-10-15T04:43:47.308Z,6.10
2022-10-15T04:46:51.871Z,9.30
2022-10-15T04:50:28.554Z,6.22
2022-10-15T04:53:55.884Z,6.78
2022-10-15T04:57:00.529Z,6.00
2022-10-15T05:00:06.452Z,7.78
2022-10-15T05:03:11.068Z,6.07
2022-10-15T05:06:23.932Z,6.00
2022-10-15T05:09:36.795Z,6.90
2022-10-15T05:15:46.096Z,8.05
2022-10-15T05:18:56.341Z,6.18
2022-10-15T05:22:00.830Z,6.55
2022-10-15T05:25:05.966Z,7.47
2022-10-15T05:28:13.535Z,6.45
2022-10-15T05:31:23.762Z,6.45
2022-10-15T05:34:34.896Z,7.20
2022-10-15T05:37:43.810Z,5.68
2022-10-15T05:40:49.786Z,7.43
2022-10-15T05:43:59.251Z,6.38
2022-10-15T05:47:11.629Z,5.80
2022-10-15T05:50:16.927Z,7.38
2022-10-15T05:53:25.726Z,7.07
2022-10-15T05:56:34.515Z,6.40
2022-10-15T05:59:39.094Z,5.65
2022-10-15T06:02:44.102Z,8.27
2022-10-15T06:05:48.640Z,6.38
2022-10-15T06:08:54.489Z,6.53
2022-10-15T06:11:58.953Z,7.00
2022-10-15T06:15:03.874Z,5.28
2022-10-15T06:18:10.067Z,5.78
2022-10-15T06:21:14.517Z,7.05
2022-10-15T06:24:18.863Z,7.88
2022-10-15T06:27:23.512Z,7.32
2022-10-15T06:30:28.229Z,6.97
2022-10-15T06:33:33.247Z,6.30
2022-10-15T06:36:38.295Z,5.90
2022-10-15T06:39:44.026Z,6.43
2022-10-15T06:42:48.692Z,7.95
2022-10-15T06:45:52.764Z,7.55
2022-10-15T06:48:57.183Z,7.38
2022-10-15T06:52:03.550Z,9.00
2022-10-15T06:55:09.256Z,7.60
2022-10-15T06:58:13.979Z,7.75
2022-10-15T07:01:18.937Z,7.75
2022-10-15T07:04:24.181Z,7.55
2022-10-15T07:07:28.698Z,8.52
2022-10-15T07:10:33.822Z,9.85
2022-10-15T07:13:38.910Z,8.25
2022-10-15T07:16:45.095Z,8.82
2022-10-15T07:19:49.902Z,8.85
2022-10-15T07:23:02.123Z,7.70
2022-10-15T07:26:13.016Z,7.32
2022-10-15T07:29:18.735Z,7.85
2022-10-15T07:32:24.422Z,7.43
2022-10-15T07:35:29.253Z,8.05
2022-10-15T07:38:37.201Z,8.90
2022-10-15T07:41:41.610Z,9.75
2022-10-15T07:44:45.942Z,10.05
2022-10-15T07:47:52.896Z,7.82
2022-10-15T07:51:06.784Z,10.00
2022-10-15T07:57:16.554Z,6.40
2022-10-15T08:00:21.010Z,7.82
2022-10-15T08:03:25.700Z,9.43
2022-10-15T08:06:33.016Z,10.13
2022-10-15T08:09:37.767Z,7.95
2022-10-15T08:12:42.499Z,10.73
2022-10-15T08:15:46.575Z,10.82
2022-10-15T08:21:55.499Z,8.15
2022-10-15T08:25:00.005Z,10.55
2022-10-15T08:28:05.003Z,9.75
2022-10-15T08:31:09.747Z,7.80
2022-10-15T08:34:14.219Z,7.95
2022-10-15T08:37:18.941Z,8.65
2022-10-15T08:40:23.538Z,7.90
2022-10-15T08:43:38.218Z,7.55
2022-10-15T08:46:56.596Z,6.90
2022-10-15T08:50:25.498Z,7.47
2022-10-15T08:53:34.788Z,7.90
2022-10-15T08:56:48.349Z,6.90
2022-10-15T09:00:23.206Z,6.70
2022-10-15T09:03:37.400Z,9.57
2022-10-15T09:09:58.379Z,6.28
2022-10-15T09:13:13.933Z,6.00
2022-10-15T09:16:36.506Z,6.90
2022-10-15T09:19:44.634Z,4.65
2022-10-15T09:22:52.886Z,6.78
2022-10-15T09:26:30.617Z,6.03
2022-10-15T09:29:58.547Z,6.38
2022-10-15T09:33:33.282Z,7.57
2022-10-15T09:37:02.675Z,9.45
2022-10-15T09:40:28.533Z,7.47
2022-10-15T09:43:38.281Z,6.72
2022-10-15T09:46:50.016Z,6.75
2022-10-15T09:49:55.020Z,7.00
2022-10-15T09:53:20.593Z,6.03
2022-10-15T09:56:38.792Z,6.78
2022-10-15T09:59:55.531Z,5.63
2022-10-15T10:03:14.807Z,8.43
2022-10-15T10:06:20.697Z,6.78
2022-10-15T10:09:38.621Z,7.88
2022-10-15T10:12:44.317Z,5.07
2022-10-15T10:15:58.269Z,4.93
2022-10-15T10:19:13.269Z,5.05
2022-10-15T10:22:20.703Z,6.43
2022-10-15T10:25:44.746Z,7.43
2022-10-15T10:28:49.696Z,5.90
2022-10-15T10:31:54.465Z,5.00
2022-10-15T10:35:05.690Z,5.20
2022-10-15T10:38:33.232Z,6.03
2022-10-15T10:41:58.654Z,5.50
2022-10-15T10:45:20.408Z,5.88
2022-10-15T10:48:46.163Z,6.20
2022-10-15T10:51:50.652Z,4.80
2022-10-15T10:55:02.683Z,6.97
2022-10-15T10:58:22.096Z,5.85
2022-10-15T11:01:30.031Z,5.82
2022-10-15T11:04:36.140Z,4.88
2022-10-15T11:08:06.319Z,6.82
2022-10-15T11:11:40.239Z,5.53
2022-10-15T11:15:04.482Z,4.75
2022-10-15T11:18:33.974Z,5.13
2022-10-15T11:21:52.296Z,5.60
2022-10-15T11:25:07.521Z,5.82
2022-10-15T11:28:30.410Z,6.90
2022-10-15T11:32:02.849Z,5.13
2022-10-15T11:35:59.784Z,4.97
2022-10-15T11:39:26.586Z,4.43
2022-10-15T11:42:47.239Z,5.72
2022-10-15T11:46:06.392Z,5.47
2022-10-15T11:49:37.173Z,4.15
2022-10-15T11:52:44.236Z,3.42
2022-10-15T11:56:20.285Z,3.33
2022-10-15T11:59:46.432Z,3.80
2022-10-15T12:02:52.124Z,3.13
2022-10-15T12:06:06.690Z,2.90
2022-10-15T12:09:28.445Z,3.03
2022-10-15T12:13:16.094Z,2.70
2022-10-15T12:16:34.792Z,2.88
2022-10-15T12:19:54.587Z,2.55
2022-10-15T12:23:02.134Z,3.53
2022-10-15T12:26:24.882Z,2.35
2022-10-15T12:29:30.487Z,2.13
2022-10-15T12:32:46.569Z,3.13
2022-10-15T12:36:21.834Z,2.35
2022-10-15T12:39:51.250Z,2.28
2022-10-15T12:42:56.161Z,1.88
2022-10-15T12:46:06.791Z,2.13
2022-10-15T12:49:40.808Z,2.17
2022-10-15T12:53:07.120Z,1.83
2022-10-15T12:56:15.775Z,1.95
2022-10-15T12:59:51.872Z,1.90
2022-10-15T13:03:02.551Z,1.50
2022-10-15T13:06:23.092Z,2.33
2022-10-15T13:09:30.521Z,1.42
2022-10-15T13:12:35.158Z,2.63
2022-10-15T13:15:40.455Z,1.98
2022-10-15T13:18:52.859Z,2.72
2022-10-15T13:22:01.041Z,2.58
2022-10-15T13:25:18.583Z,2.13
2022-10-15T13:28:39.378Z,2.17
2022-10-15T13:31:48.159Z,2.45
2022-10-15T13:34:53.645Z,1.65
2022-10-15T13:37:59.901Z,1.80
2022-10-15T13:41:04.469Z,1.58
2022-10-15T13:44:24.569Z,1.80
2022-10-15T13:47:40.566Z,2.45
2022-10-15T13:50:47.142Z,2.13
2022-10-15T13:53:51.804Z,2.25
2022-10-15T13:57:01.712Z,1.98
2022-10-15T14:00:06.982Z,2.50
2022-10-15T14:03:22.214Z,2.17
2022-10-15T14:07:04.133Z,2.00
2022-10-15T14:10:09.670Z,2.47
2022-10-15T14:13:14.048Z,2.80
2022-10-15T14:16:41.010Z,3.55
2022-10-15T14:20:25.388Z,4.22
2022-10-15T14:23:25.675Z,3.83
2022-10-15T14:26:31.078Z,3.40
2022-10-15T14:29:41.410Z,2.72
2022-10-15T14:32:51.952Z,3.08
2022-10-15T14:36:24.083Z,3.47
2022-10-15T14:39:36.350Z,3.33
2022-10-15T14:42:48.810Z,2.72
2022-10-15T14:45:53.112Z,3.65
2022-10-15T14:48:57.470Z,3.08
2022-10-15T14:52:11.775Z,3.03
2022-10-15T14:55:43.545Z,2.90
2022-10-15T14:58:58.602Z,3.45
2022-10-15T15:02:05.263Z,3.15
2022-10-15T15:05:12.945Z,3.03
2022-10-15T15:08:17.809Z,4.30
2022-10-15T15:11:25.220Z,3.88
2022-10-15T15:14:29.899Z,3.90
2022-10-15T15:17:34.058Z,4.53
2022-10-15T15:20:41.448Z,4.65
2022-10-15T15:23:46.918Z,3.42
2022-10-15T15:26:51.319Z,3.33
2022-10-15T15:29:56.958Z,3.58
2022-10-15T15:33:02.105Z,3.10
2022-10-15T15:36:18.861Z,3.50
2022-10-15T15:39:26.836Z,3.20
2022-10-15T15:42:31.065Z,3.03
2022-10-15T15:45:35.750Z,2.78
2022-10-15T15:48:40.070Z,3.10
2022-10-15T15:51:44.518Z,2.65
2022-10-15T15:54:49.055Z,3.10
2022-10-15T15:57:53.241Z,2.50
2022-10-15T16:00:57.659Z,2.60
2022-10-15T16:04:02.398Z,2.45
2022-10-15T16:07:09.083Z,2.30
2022-10-15T16:10:16.990Z,2.63
2022-10-15T16:13:21.583Z,2.40
2022-10-15T16:16:26.408Z,1.65
2022-10-15T16:19:31.200Z,1.70
2022-10-15T16:22:36.030Z,2.75
2022-10-15T16:25:40.612Z,1.83
2022-10-15T16:28:45.758Z,1.42
2022-10-15T16:31:50.375Z,2.30
2022-10-15T16:34:54.813Z,3.63
2022-10-15T16:38:00.680Z,1.88
2022-10-15T16:41:05.344Z,2.13
2022-10-15T16:44:10.143Z,1.95
2022-10-15T16:47:14.825Z,1.70
2022-10-15T16:50:19.948Z,2.25
2022-10-15T16:53:24.579Z,2.25
2022-10-15T16:56:31.016Z,4.32
2022-10-15T16:59:35.469Z,1.80
2022-10-15T17:02:39.768Z,1.85
2022-10-15T17:05:44.351Z,2.28
2022-10-15T17:08:58.133Z,1.77
2022-10-15T17:12:02.385Z,3.17
2022-10-15T17:15:07.635Z,1.88
2022-10-15T17:18:12.379Z,2.08
2022-10-15T17:21:23.339Z,2.45
2022-10-15T17:24:27.998Z,1.80
2022-10-15T17:27:34.000Z,2.28
2022-10-15T17:30:38.557Z,1.88
2022-10-15T17:33:46.569Z,2.65
2022-10-15T17:36:52.259Z,2.60
2022-10-15T17:39:58.223Z,2.38
2022-10-15T17:43:03.845Z,2.50
2022-10-15T17:46:12.714Z,2.22
2022-10-15T17:49:18.484Z,4.18
2022-10-15T17:52:23.485Z,7.97
2022-10-15T17:55:28.312Z,7.20
2022-10-15T17:58:33.254Z,5.70
2022-10-15T18:05:07.652Z,4.22
2022-10-15T18:08:17.014Z,4.10
2022-10-15T18:11:28.998Z,6.32
2022-10-15T18:14:33.374Z,6.25
2022-10-15T18:17:38.372Z,3.17
2022-10-15T18:20:45.410Z,4.15
2022-10-15T18:23:49.995Z,3.67
2022-10-15T18:26:54.790Z,4.18
2022-10-15T18:29:59.398Z,3.17
2022-10-15T18:33:04.405Z,3.00
2022-10-15T18:36:23.176Z,2.40
2022-10-15T18:39:27.782Z,3.20
2022-10-15T18:42:32.749Z,2.08
2022-10-15T18:45:37.897Z,3.53
2022-10-15T18:48:42.257Z,2.70
2022-10-15T18:51:50.704Z,2.45
2022-10-15T18:54:55.394Z,3.20
2022-10-15T18:58:01.968Z,4.95
2022-10-15T19:01:29.792Z,5.50
2022-10-15T19:04:34.620Z,3.55
2022-10-15T19:07:38.922Z,3.17
2022-10-15T19:10:43.857Z,3.97
2022-10-15T19:13:49.014Z,4.07
2022-10-15T19:16:54.213Z,3.03
2022-10-15T19:19:58.602Z,4.53
2022-10-15T19:23:03.132Z,3.40
2022-10-15T19:26:10.170Z,3.58
2022-10-15T19:29:15.407Z,2.67
2022-10-15T19:32:22.391Z,4.80
2022-10-15T19:35:27.243Z,5.13
2022-10-15T19:38:34.150Z,4.53
2022-10-15T19:41:41.685Z,4.40
2022-10-15T19:44:45.965Z,4.78
2022-10-15T19:47:53.401Z,4.00
2022-10-15T19:51:02.215Z,4.72
2022-10-15T19:54:07.064Z,5.63
2022-10-15T19:57:11.873Z,6.97
2022-10-15T20:00:17.267Z,5.55
2022-10-15T20:03:22.794Z,6.72
2022-10-15T20:06:27.451Z,9.10
2022-10-15T20:09:32.171Z,8.55
2022-10-15T20:12:37.122Z,8.65
2022-10-15T20:15:46.918Z,9.63
2022-10-15T20:18:51.519Z,10.23
2022-10-15T20:21:56.030Z,8.98
2022-10-15T20:25:01.146Z,9.23
2022-10-15T20:28:05.904Z,9.38
2022-10-15T20:31:17.643Z,9.98
2022-10-15T20:34:22.678Z,10.05
2022-10-15T20:37:27.342Z,13.02
2022-10-15T20:40:34.348Z,13.20
2022-10-15T20:43:39.558Z,14.15
2022-10-15T20:47:03.864Z,14.75
2022-10-15T20:50:15.882Z,14.27
2022-10-15T20:53:23.011Z,11.77
2022-10-15T20:56:27.802Z,13.75
2022-10-15T20:59:32.902Z,13.52
2022-10-15T21:02:37.646Z,13.70
2022-10-15T21:05:42.115Z,11.80
2022-10-15T21:08:46.740Z,11.00
2022-10-15T21:11:51.297Z,13.02
2022-10-15T21:14:55.765Z,9.57
2022-10-15T21:18:00.127Z,11.20
2022-10-15T21:21:14.405Z,8.98
2022-10-15T21:24:19.415Z,11.93
2022-10-15T21:27:24.647Z,11.43
2022-10-15T21:30:29.409Z,9.63
2022-10-15T21:33:35.876Z,11.35
2022-10-15T21:36:40.732Z,9.82
2022-10-15T21:39:44.955Z,9.38
2022-10-15T21:42:49.490Z,6.85
2022-10-15T21:45:54.295Z,7.82
2022-10-15T21:49:00.319Z,8.10
2022-10-15T21:52:05.095Z,7.07
2022-10-15T21:55:09.380Z,7.03
2022-10-15T21:58:14.010Z,7.35
2022-10-15T22:01:26.080Z,8.40
2022-10-15T22:04:34.842Z,7.90
2022-10-15T22:07:40.362Z,7.47
2022-10-15T22:10:44.923Z,7.25
2022-10-15T22:13:54.414Z,8.02
2022-10-15T22:16:59.157Z,7.22
2022-10-15T22:20:04.034Z,7.57
2022-10-15T22:23:08.387Z,6.50
2022-10-15T22:26:14.800Z,8.07
2022-10-15T22:29:26.427Z,7.18
2022-10-15T22:32:31.018Z,7.82
2022-10-15T22:35:35.829Z,7.97
2022-10-15T22:38:46.456Z,6.95
2022-10-15T22:41:50.975Z,8.00
2022-10-15T22:44:55.314Z,8.95
2022-10-15T22:47:59.942Z,5.93
2022-10-15T22:51:07.590Z,6.25
2022-10-15T22:54:12.252Z,6.22
2022-10-15T22:57:16.524Z,4.70
2022-10-15T23:00:21.043Z,6.22
2022-10-15T23:03:25.778Z,5.45
2022-10-15T23:06:32.862Z,6.05
2022-10-15T23:09:37.325Z,4.75
2022-10-15T23:12:41.754Z,4.95
2022-10-15T23:15:46.557Z,5.57
2022-10-15T23:19:00.426Z,5.90
2022-10-15T23:22:04.870Z,4.57
2022-10-15T23:25:09.818Z,3.97
2022-10-15T23:28:14.359Z,3.90
2022-10-15T23:31:25.728Z,4.72
2022-10-15T23:34:30.126Z,3.88
2022-10-15T23:37:36.125Z,4.57
2022-10-15T23:40:40.279Z,4.72
2022-10-15T23:43:44.726Z,4.65
2022-10-15T23:46:49.046Z,6.60
2022-10-15T23:49:53.512Z,4.75
2022-10-15T23:52:58.373Z,5.53
2022-10-15T23:56:02.952Z,5.75
2022-10-15T23:59:08.482Z,4.93
